Time;durP1;ratioP1;P1;durP2;ratioP2;P2;SDS_P1;SDS_P2;PMS_P1;PMS_P2;Temp;Humidity;BMP_temperature;BMP_pressure;BME280_temperature;BME280_humidity;BME280_pressure;Samples;Min_cycle;Max_cycle;Signal;HPM_P1;HPM_P2
2021/11/13 00:00:52;;;;;;;4.40;4.00;;;;;;;;;;5039590;28;20400;-68
2021/11/13 00:03:20;;;;;;;4.70;4.15;;;;;;;;;;5036960;28;20389;-68
2021/11/13 00:05:50;;;;;;;5.10;4.60;;;;;;;;;;5043003;28;20474;-68
2021/11/13 00:08:18;;;;;;;5.20;4.70;;;;;;;;;;5057590;28;20399;-68
2021/11/13 00:10:47;;;;;;;4.95;4.40;;;;;;;;;;5044465;28;20398;-68
2021/11/13 00:13:21;;;;;;;5.00;4.53;;;;;;;;;;5040771;28;20894;-69
2021/11/13 00:15:53;;;;;;;4.72;4.32;;;;;;;;;;5041732;28;20399;-68
2021/11/13 00:18:26;;;;;;;5.30;4.80;;;;;;;;;;5035206;28;20794;-68
2021/11/13 00:20:54;;;;;;;4.90;4.50;;;;;;;;;;5036124;28;20387;-68
2021/11/13 00:23:24;;;;;;;4.80;4.40;;;;;;;;;;5042150;28;20447;-68
2021/11/13 00:25:58;;;;;;;5.00;4.50;;;;;;;;;;5036317;28;20399;-68
2021/11/13 00:28:36;;;;;;;4.90;4.40;;;;;;;;;;5040780;28;20493;-68
2021/11/13 00:31:08;;;;;;;4.97;4.50;;;;;;;;;;5052733;28;20892;-68
2021/11/13 00:33:38;;;;;;;4.72;4.32;;;;;;;;;;5049123;28;20735;-69
2021/11/13 00:36:12;;;;;;;5.55;4.55;;;;;;;;;;5049485;28;20856;-68
2021/11/13 00:38:42;;;;;;;4.90;4.45;;;;;;;;;;5062852;28;20735;-68
2021/11/13 00:41:13;;;;;;;5.32;4.90;;;;;;;;;;5048484;28;20398;-68
2021/11/13 00:43:40;;;;;;;5.55;5.05;;;;;;;;;;5042220;28;20413;-68
2021/11/13 00:46:09;;;;;;;5.70;5.20;;;;;;;;;;5048508;28;20404;-68
2021/11/13 00:48:37;;;;;;;5.65;5.13;;;;;;;;;;5034203;28;20398;-68
2021/11/13 00:51:05;;;;;;;5.80;5.25;;;;;;;;;;5039376;28;20423;-68
2021/11/13 00:53:33;;;;;;;5.38;4.88;;;;;;;;;;5044002;28;20406;-68
2021/11/13 00:56:07;;;;;;;5.50;5.00;;;;;;;;;;5054510;28;20450;-68
2021/11/13 00:58:36;;;;;;;5.50;5.00;;;;;;;;;;5044044;28;20736;-68
2021/11/13 01:01:09;;;;;;;5.20;4.80;;;;;;;;;;5057667;28;20410;-68
2021/11/13 01:03:37;;;;;;;5.05;4.55;;;;;;;;;;5050375;28;20414;-68
2021/11/13 01:06:07;;;;;;;5.40;4.90;;;;;;;;;;5053080;28;20410;-68
2021/11/13 01:08:37;;;;;;;5.10;4.70;;;;;;;;;;5040575;28;20394;-68
2021/11/13 01:11:12;;;;;;;5.13;4.63;;;;;;;;;;5062246;28;20407;-68
2021/11/13 01:13:44;;;;;;;6.22;4.55;;;;;;;;;;5049529;28;20412;-68
2021/11/13 01:16:13;;;;;;;5.00;4.60;;;;;;;;;;5058824;28;20409;-68
2021/11/13 01:18:48;;;;;;;5.35;4.88;;;;;;;;;;5044347;28;20406;-68
2021/11/13 01:21:24;;;;;;;5.63;5.13;;;;;;;;;;5031545;28;20405;-68
2021/11/13 01:23:52;;;;;;;5.15;4.65;;;;;;;;;;5050368;28;20857;-68
2021/11/13 01:26:24;;;;;;;5.18;4.68;;;;;;;;;;5036727;28;20404;-68
2021/11/13 01:28:58;;;;;;;5.90;4.60;;;;;;;;;;5028980;28;20406;-68
2021/11/13 01:31:26;;;;;;;5.07;4.60;;;;;;;;;;5053319;28;20928;-68
2021/11/13 01:33:56;;;;;;;5.07;4.57;;;;;;;;;;5037437;28;20892;-68
2021/11/13 01:36:24;;;;;;;5.03;4.53;;;;;;;;;;5050428;28;20396;-68
2021/11/13 01:38:55;;;;;;;4.95;4.45;;;;;;;;;;5043931;28;20604;-68
2021/11/13 01:41:27;;;;;;;4.90;4.40;;;;;;;;;;5045516;28;20393;-68
2021/11/13 01:44:07;;;;;;;4.20;3.80;;;;;;;;;;5049188;28;20782;-68
2021/11/13 01:46:35;;;;;;;4.60;4.20;;;;;;;;;;5029376;28;20432;-68
2021/11/13 01:49:03;;;;;;;4.77;4.37;;;;;;;;;;5065413;28;20506;-68
2021/11/13 01:51:33;;;;;;;4.35;3.95;;;;;;;;;;5035302;28;20680;-68
2021/11/13 01:54:06;;;;;;;4.88;4.45;;;;;;;;;;5031610;28;20894;-68
2021/11/13 01:56:38;;;;;;;4.18;3.78;;;;;;;;;;5044361;28;20408;-68
2021/11/13 01:59:07;;;;;;;4.05;3.65;;;;;;;;;;5019268;28;20394;-68
2021/11/13 02:01:37;;;;;;;4.22;3.90;;;;;;;;;;5031975;28;21177;-68
2021/11/13 02:04:07;;;;;;;4.10;3.78;;;;;;;;;;5040567;28;20430;-68
2021/11/13 02:06:36;;;;;;;4.07;3.60;;;;;;;;;;5040160;28;20855;-68
2021/11/13 02:09:08;;;;;;;4.45;3.75;;;;;;;;;;5039040;28;20387;-68
2021/11/13 02:11:39;;;;;;;4.23;3.70;;;;;;;;;;5043735;28;20482;-68
2021/11/13 02:14:11;;;;;;;4.38;3.97;;;;;;;;;;5037276;28;21000;-68
2021/11/13 02:16:41;;;;;;;4.07;3.70;;;;;;;;;;5046046;28;20503;-67
2021/11/13 02:19:12;;;;;;;3.80;3.38;;;;;;;;;;5051435;28;20393;-67
2021/11/13 02:21:42;;;;;;;4.00;3.47;;;;;;;;;;5043354;28;20384;-67
2021/11/13 02:24:13;;;;;;;3.67;3.37;;;;;;;;;;5034699;28;20819;-68
2021/11/13 02:26:45;;;;;;;4.05;3.65;;;;;;;;;;5042432;28;20884;-67
2021/11/13 02:29:14;;;;;;;4.05;3.67;;;;;;;;;;5037673;28;20394;-67
2021/11/13 02:31:46;;;;;;;4.07;3.67;;;;;;;;;;5045324;28;20609;-69
2021/11/13 02:34:19;;;;;;;3.97;3.58;;;;;;;;;;5062175;28;20407;-67
2021/11/13 02:36:48;;;;;;;4.35;3.95;;;;;;;;;;5042053;28;20402;-67
2021/11/13 02:39:19;;;;;;;4.63;4.22;;;;;;;;;;5030162;28;20397;-67
2021/11/13 02:41:52;;;;;;;4.15;3.75;;;;;;;;;;5046137;28;20403;-67
2021/11/13 02:44:26;;;;;;;4.32;3.92;;;;;;;;;;5044668;28;20398;-67
2021/11/13 02:46:57;;;;;;;4.38;3.78;;;;;;;;;;5041300;28;20437;-67
2021/11/13 02:49:26;;;;;;;4.43;3.72;;;;;;;;;;5041355;28;20380;-68
2021/11/13 02:51:54;;;;;;;4.93;4.07;;;;;;;;;;5040767;28;20426;-68
2021/11/13 02:54:23;;;;;;;4.47;4.07;;;;;;;;;;5048797;28;20402;-67
2021/11/13 02:56:53;;;;;;;3.75;3.45;;;;;;;;;;5045060;28;20417;-67
2021/11/13 02:59:22;;;;;;;4.00;3.70;;;;;;;;;;5045650;28;20421;-67
2021/11/13 03:01:49;;;;;;;4.43;4.03;;;;;;;;;;5045916;28;20446;-67
2021/11/13 03:04:18;;;;;;;4.20;3.80;;;;;;;;;;5029506;28;20393;-67
2021/11/13 03:06:47;;;;;;;4.38;3.95;;;;;;;;;;5041075;28;20398;-67
2021/11/13 03:09:19;;;;;;;4.20;3.80;;;;;;;;;;5041473;28;20400;-67
2021/11/13 03:11:50;;;;;;;4.32;3.92;;;;;;;;;;5044979;28;20469;-67
2021/11/13 03:14:24;;;;;;;4.22;3.83;;;;;;;;;;5028514;28;20407;-67
2021/11/13 03:16:52;;;;;;;4.30;3.90;;;;;;;;;;5039933;28;20420;-67
2021/11/13 03:19:22;;;;;;;4.30;3.88;;;;;;;;;;5035516;28;20390;-67
2021/11/13 03:21:50;;;;;;;4.32;3.92;;;;;;;;;;5040631;28;20400;-67
2021/11/13 03:24:32;;;;;;;3.97;3.60;;;;;;;;;;5046217;28;20851;-68
2021/11/13 03:27:04;;;;;;;4.35;3.80;;;;;;;;;;5035999;28;20400;-67
2021/11/13 03:29:36;;;;;;;4.20;3.80;;;;;;;;;;5041377;28;20931;-67
2021/11/13 03:32:06;;;;;;;4.10;3.60;;;;;;;;;;5041265;28;20398;-67
2021/11/13 03:34:34;;;;;;;3.95;3.65;;;;;;;;;;5028469;28;20443;-67
2021/11/13 03:37:04;;;;;;;4.00;3.60;;;;;;;;;;5042479;28;20406;-68
2021/11/13 03:39:31;;;;;;;3.78;3.38;;;;;;;;;;5032552;28;20399;-68
2021/11/13 03:42:00;;;;;;;3.88;3.53;;;;;;;;;;5041617;28;20399;-68
2021/11/13 03:44:27;;;;;;;4.88;3.33;;;;;;;;;;5059504;28;20506;-68
2021/11/13 03:46:56;;;;;;;3.40;3.10;;;;;;;;;;5042657;28;20409;-68
2021/11/13 03:49:28;;;;;;;5.20;3.88;;;;;;;;;;5059993;28;20407;-68
2021/11/13 03:52:00;;;;;;;3.97;3.60;;;;;;;;;;5045494;28;20423;-68
2021/11/13 03:54:31;;;;;;;3.47;3.17;;;;;;;;;;5041614;28;20403;-67
2021/11/13 03:56:58;;;;;;;3.17;2.88;;;;;;;;;;5045373;28;20482;-67
2021/11/13 03:59:31;;;;;;;4.00;3.22;;;;;;;;;;5043887;28;20412;-67
2021/11/13 04:02:02;;;;;;;3.20;2.90;;;;;;;;;;5044600;28;20865;-67
2021/11/13 04:04:31;;;;;;;3.40;3.07;;;;;;;;;;5055939;28;20773;-67
2021/11/13 04:06:59;;;;;;;3.25;2.95;;;;;;;;;;5041208;28;20881;-68
2021/11/13 04:09:31;;;;;;;3.20;2.90;;;;;;;;;;5043527;28;20393;-68
2021/11/13 04:12:06;;;;;;;3.05;2.75;;;;;;;;;;5047579;28;20405;-68
2021/11/13 04:14:35;;;;;;;4.05;3.08;;;;;;;;;;5038569;28;20402;-68
2021/11/13 04:17:06;;;;;;;2.83;2.58;;;;;;;;;;5052854;28;20467;-67
2021/11/13 04:19:38;;;;;;;3.30;2.70;;;;;;;;;;5033559;28;20395;-67
2021/11/13 04:22:07;;;;;;;3.10;2.80;;;;;;;;;;5034887;28;20469;-68
2021/11/13 04:24:34;;;;;;;3.17;2.60;;;;;;;;;;5042210;28;20408;-68
2021/11/13 04:27:01;;;;;;;3.10;2.70;;;;;;;;;;5044127;28;20870;-67
2021/11/13 04:29:33;;;;;;;3.00;2.50;;;;;;;;;;5044187;28;20510;-67
2021/11/13 04:32:01;;;;;;;2.92;2.60;;;;;;;;;;5040531;28;20403;-67
2021/11/13 04:34:44;;;;;;;3.20;2.97;;;;;;;;;;5038671;28;20384;-67
2021/11/13 04:37:18;;;;;;;2.88;2.47;;;;;;;;;;5031462;28;20407;-67
2021/11/13 04:39:47;;;;;;;2.70;2.50;;;;;;;;;;5050377;28;20486;-67
2021/11/13 04:42:20;;;;;;;2.67;2.47;;;;;;;;;;5047474;28;20399;-67
2021/11/13 04:44:52;;;;;;;2.55;2.35;;;;;;;;;;5061667;28;20398;-67
2021/11/13 04:47:24;;;;;;;2.67;2.47;;;;;;;;;;5039702;28;20496;-67
2021/11/13 04:49:55;;;;;;;2.95;2.63;;;;;;;;;;5040389;28;20384;-68
2021/11/13 04:52:23;;;;;;;2.70;2.50;;;;;;;;;;5038598;28;20696;-67
2021/11/13 04:54:54;;;;;;;2.65;2.30;;;;;;;;;;5045510;28;20408;-67
2021/11/13 04:57:22;;;;;;;2.53;2.33;;;;;;;;;;5047960;28;21038;-67
2021/11/13 04:59:51;;;;;;;2.70;2.50;;;;;;;;;;5061412;28;20765;-68
2021/11/13 05:02:22;;;;;;;2.70;2.50;;;;;;;;;;5049904;28;20384;-68
2021/11/13 05:04:56;;;;;;;2.63;2.42;;;;;;;;;;5042647;28;20899;-67
2021/11/13 05:07:27;;;;;;;2.72;2.45;;;;;;;;;;5054721;28;20401;-67
2021/11/13 05:09:57;;;;;;;2.63;2.40;;;;;;;;;;5045699;28;20409;-68
2021/11/13 05:12:29;;;;;;;4.07;2.60;;;;;;;;;;5056884;28;20406;-68
2021/11/13 05:15:01;;;;;;;2.42;2.22;;;;;;;;;;5044404;28;20404;-68
2021/11/13 05:17:33;;;;;;;2.70;2.50;;;;;;;;;;5058480;28;20402;-68
2021/11/13 05:20:07;;;;;;;2.33;2.13;;;;;;;;;;5033739;28;20515;-68
2021/11/13 05:22:37;;;;;;;2.40;2.20;;;;;;;;;;5036373;28;20394;-68
2021/11/13 05:25:09;;;;;;;2.40;2.20;;;;;;;;;;5035461;28;20446;-68
2021/11/13 05:27:42;;;;;;;2.67;2.40;;;;;;;;;;5035807;28;20384;-68
2021/11/13 05:30:12;;;;;;;2.40;2.20;;;;;;;;;;5062366;28;20396;-68
2021/11/13 05:32:44;;;;;;;2.58;2.38;;;;;;;;;;5054984;28;20799;-68
2021/11/13 05:35:13;;;;;;;2.70;2.50;;;;;;;;;;5029450;28;20399;-68
2021/11/13 05:37:49;;;;;;;2.72;2.53;;;;;;;;;;5060345;28;20843;-68
2021/11/13 05:40:24;;;;;;;2.67;2.47;;;;;;;;;;5048137;28;20405;-67
2021/11/13 05:42:52;;;;;;;2.80;2.50;;;;;;;;;;5055374;28;20847;-68
2021/11/13 05:45:23;;;;;;;2.40;2.20;;;;;;;;;;5045746;28;20395;-68
2021/11/13 05:47:57;;;;;;;2.70;2.50;;;;;;;;;;5041922;28;20388;-68
2021/11/13 05:50:27;;;;;;;2.63;2.42;;;;;;;;;;5044404;28;20399;-67
2021/11/13 05:52:58;;;;;;;2.60;2.38;;;;;;;;;;5066580;28;20402;-67
2021/11/13 05:55:29;;;;;;;2.60;2.40;;;;;;;;;;5044426;28;20388;-67
2021/11/13 05:57:59;;;;;;;2.70;2.50;;;;;;;;;;5058966;28;20851;-67
2021/11/13 06:00:30;;;;;;;2.47;2.25;;;;;;;;;;5059450;28;20389;-67
2021/11/13 06:03:05;;;;;;;2.45;2.25;;;;;;;;;;5050878;28;20428;-67
2021/11/13 06:05:36;;;;;;;2.50;2.30;;;;;;;;;;5024895;28;20776;-67
2021/11/13 06:08:12;;;;;;;2.53;2.20;;;;;;;;;;5048735;28;20443;-66
2021/11/13 06:10:47;;;;;;;2.50;2.30;;;;;;;;;;5027184;28;20392;-66
2021/11/13 06:13:14;;;;;;;2.30;2.10;;;;;;;;;;5036695;28;20707;-66
2021/11/13 06:15:44;;;;;;;2.28;2.08;;;;;;;;;;5045272;28;20413;-66
2021/11/13 06:18:13;;;;;;;1.90;1.80;;;;;;;;;;5046099;28;20887;-66
2021/11/13 06:20:54;;;;;;;2.20;2.00;;;;;;;;;;5058563;28;20394;-66
2021/11/13 06:23:21;;;;;;;2.22;2.08;;;;;;;;;;5049685;28;20394;-66
2021/11/13 06:25:50;;;;;;;2.20;2.00;;;;;;;;;;5025378;28;20400;-66
2021/11/13 06:28:19;;;;;;;2.00;1.85;;;;;;;;;;5044998;28;20398;-66
2021/11/13 06:30:51;;;;;;;2.33;2.13;;;;;;;;;;5039903;28;20398;-66
2021/11/13 06:33:20;;;;;;;1.92;1.80;;;;;;;;;;5053653;28;20406;-66
2021/11/13 06:35:49;;;;;;;2.45;1.90;;;;;;;;;;5045557;28;20753;-66
2021/11/13 06:38:20;;;;;;;2.60;1.80;;;;;;;;;;5054135;28;20450;-66
2021/11/13 06:40:51;;;;;;;2.50;2.30;;;;;;;;;;5051519;28;20399;-66
2021/11/13 06:43:34;;;;;;;2.05;1.85;;;;;;;;;;5050362;28;20418;-66
2021/11/13 06:46:07;;;;;;;2.20;2.00;;;;;;;;;;5051689;28;20418;-67
2021/11/13 06:48:38;;;;;;;2.00;1.90;;;;;;;;;;5048994;28;20407;-67
2021/11/13 06:51:05;;;;;;;2.20;2.00;;;;;;;;;;5054347;28;20410;-67
2021/11/13 06:53:34;;;;;;;1.90;1.80;;;;;;;;;;5058233;28;20411;-67
2021/11/13 06:56:10;;;;;;;1.95;1.83;;;;;;;;;;5055416;28;20409;-66
2021/11/13 06:58:42;;;;;;;1.88;1.77;;;;;;;;;;5043907;28;20701;-66
2021/11/13 07:01:15;;;;;;;1.83;1.70;;;;;;;;;;5064702;28;20408;-66
2021/11/13 07:03:47;;;;;;;2.60;1.95;;;;;;;;;;5065808;28;20407;-66
2021/11/13 07:06:16;;;;;;;1.80;1.70;;;;;;;;;;5049880;28;20396;-66
2021/11/13 07:08:47;;;;;;;3.25;1.70;;;;;;;;;;5040714;28;20408;-66
2021/11/13 07:11:16;;;;;;;1.80;1.70;;;;;;;;;;5043772;28;20393;-66
2021/11/13 07:13:45;;;;;;;2.20;2.00;;;;;;;;;;5052684;28;20414;-66
2021/11/13 07:16:16;;;;;;;1.90;1.80;;;;;;;;;;5048918;28;20467;-66
2021/11/13 07:18:45;;;;;;;1.80;1.70;;;;;;;;;;5053688;28;20817;-67
2021/11/13 07:21:13;;;;;;;1.80;1.70;;;;;;;;;;5044439;28;20379;-66
2021/11/13 07:23:47;;;;;;;1.73;1.63;;;;;;;;;;5050277;28;20394;-66
2021/11/13 07:26:20;;;;;;;1.77;1.67;;;;;;;;;;5041213;28;20401;-66
2021/11/13 07:28:52;;;;;;;1.70;1.60;;;;;;;;;;5055433;28;20927;-66
2021/11/13 07:31:24;;;;;;;1.70;1.60;;;;;;;;;;5043575;28;20400;-66
2021/11/13 07:33:54;;;;;;;1.95;1.73;;;;;;;;;;5052941;28;20442;-66
2021/11/13 07:36:25;;;;;;;1.80;1.70;;;;;;;;;;5046268;28;20881;-66
2021/11/13 07:38:55;;;;;;;1.60;1.50;;;;;;;;;;5042138;28;20395;-71
2021/11/13 07:41:27;;;;;;;2.50;1.58;;;;;;;;;;5027106;28;20457;-71
2021/11/13 07:43:55;;;;;;;1.80;1.33;;;;;;;;;;5039531;28;20403;-71
2021/11/13 07:46:24;;;;;;;3.35;1.25;;;;;;;;;;5057771;28;20398;-69
2021/11/13 07:48:52;;;;;;;2.83;1.58;;;;;;;;;;5052777;28;20462;-71
2021/11/13 07:51:21;;;;;;;3.00;1.30;;;;;;;;;;5042589;28;20843;-68
2021/11/13 07:53:52;;;;;;;5.55;1.35;;;;;;;;;;5032478;28;20437;-68
2021/11/13 07:56:21;;;;;;;3.20;1.40;;;;;;;;;;5044666;28;20410;-69
2021/11/13 07:58:52;;;;;;;3.75;1.40;;;;;;;;;;5036794;28;20719;-71
2021/11/13 08:01:20;;;;;;;3.20;1.50;;;;;;;;;;5039655;28;20479;-71
2021/11/13 08:03:52;;;;;;;3.13;1.30;;;;;;;;;;5038827;28;20481;-73
2021/11/13 08:06:23;;;;;;;1.80;1.15;;;;;;;;;;5035396;28;20411;-73
2021/11/13 08:08:51;;;;;;;1.23;1.10;;;;;;;;;;5040570;28;20408;-74
2021/11/13 08:11:18;;;;;;;4.68;1.40;;;;;;;;;;5062049;28;21003;-69
2021/11/13 08:13:47;;;;;;;1.42;1.13;;;;;;;;;;5064082;28;20405;-70
2021/11/13 08:16:15;;;;;;;2.35;1.38;;;;;;;;;;5058593;28;20494;-73
2021/11/13 08:18:44;;;;;;;2.33;1.23;;;;;;;;;;5041985;28;20406;-71
2021/11/13 08:21:14;;;;;;;2.80;1.33;;;;;;;;;;5047059;28;20460;-71
2021/11/13 08:23:45;;;;;;;2.30;1.25;;;;;;;;;;5049818;28;20811;-73
2021/11/13 08:26:16;;;;;;;2.20;1.40;;;;;;;;;;5065088;28;20839;-75
2021/11/13 08:28:45;;;;;;;2.67;1.40;;;;;;;;;;5044603;28;20797;-73
2021/11/13 08:31:16;;;;;;;2.50;1.40;;;;;;;;;;5061070;28;20492;-74
2021/11/13 08:33:47;;;;;;;4.05;1.60;;;;;;;;;;5070154;28;20898;-76
2021/11/13 08:36:15;;;;;;;3.30;1.38;;;;;;;;;;5065516;28;20405;-73
2021/11/13 08:38:44;;;;;;;4.25;1.58;;;;;;;;;;5065223;28;20425;-74
2021/11/13 08:41:16;;;;;;;2.70;1.60;;;;;;;;;;5058670;28;21144;-74
2021/11/13 08:43:46;;;;;;;2.17;1.73;;;;;;;;;;5062840;28;20409;-75
2021/11/13 08:46:16;;;;;;;4.55;1.80;;;;;;;;;;5055705;28;20386;-74
2021/11/13 08:48:46;;;;;;;3.10;1.80;;;;;;;;;;5053460;28;20403;-74
2021/11/13 08:51:16;;;;;;;3.60;1.60;;;;;;;;;;5028350;28;20401;-75
2021/11/13 08:53:49;;;;;;;2.75;1.80;;;;;;;;;;5025777;28;20403;-75
2021/11/13 08:56:18;;;;;;;3.47;1.67;;;;;;;;;;5037921;28;20453;-74
2021/11/13 08:58:46;;;;;;;2.65;1.80;;;;;;;;;;5040274;28;20385;-74
2021/11/13 09:01:16;;;;;;;3.45;2.08;;;;;;;;;;5047942;28;20399;-74
2021/11/13 09:03:48;;;;;;;3.17;1.83;;;;;;;;;;5018999;28;20909;-74
2021/11/13 09:06:17;;;;;;;3.13;1.90;;;;;;;;;;5052051;28;20476;-75
2021/11/13 09:08:53;;;;;;;3.03;1.88;;;;;;;;;;5028242;28;20874;-74
2021/11/13 09:11:28;;;;;;;3.70;2.10;;;;;;;;;;5047254;28;20889;-75
2021/11/13 09:14:13;;;;;;;2.63;1.88;;;;;;;;;;5026695;28;20502;-75
2021/11/13 09:16:42;;;;;;;2.67;2.00;;;;;;;;;;5028554;28;20902;-73
2021/11/13 09:19:11;;;;;;;2.90;2.10;;;;;;;;;;5048134;28;20446;-68
2021/11/13 09:21:41;;;;;;;3.47;2.40;;;;;;;;;;5043309;28;20402;-69
2021/11/13 09:24:12;;;;;;;2.72;2.30;;;;;;;;;;5047225;28;20384;-69
2021/11/13 09:26:40;;;;;;;3.53;2.50;;;;;;;;;;5036284;28;20896;-69
2021/11/13 09:29:12;;;;;;;3.05;2.40;;;;;;;;;;5042519;28;20395;-68
2021/11/13 09:31:44;;;;;;;4.35;2.40;;;;;;;;;;5043468;28;20409;-68
2021/11/13 09:34:16;;;;;;;2.75;2.30;;;;;;;;;;5048569;28;20394;-68
2021/11/13 09:36:47;;;;;;;5.82;2.70;;;;;;;;;;5027276;28;20411;-69
2021/11/13 09:39:18;;;;;;;3.13;2.53;;;;;;;;;;5048278;28;20403;-69
2021/11/13 09:41:50;;;;;;;3.10;2.30;;;;;;;;;;5040065;28;20411;-68
2021/11/13 09:44:21;;;;;;;4.35;2.70;;;;;;;;;;5047572;28;20410;-69
2021/11/13 09:46:52;;;;;;;6.00;3.00;;;;;;;;;;5036929;28;21016;-69
2021/11/13 09:49:20;;;;;;;8.65;3.95;;;;;;;;;;5029421;28;20393;-69
2021/11/13 09:51:50;;;;;;;8.15;3.80;;;;;;;;;;5041421;28;20389;-70
2021/11/13 09:54:23;;;;;;;9.68;3.90;;;;;;;;;;5052801;28;20416;-69
2021/11/13 09:56:55;;;;;;;9.45;4.88;;;;;;;;;;5058829;28;20441;-72
2021/11/13 09:59:24;;;;;;;10.32;4.90;;;;;;;;;;5054942;28;20772;-72
2021/11/13 10:01:56;;;;;;;11.65;5.20;;;;;;;;;;5043734;28;20448;-69
2021/11/13 10:04:27;;;;;;;11.53;5.03;;;;;;;;;;5058131;28;20540;-69
2021/11/13 10:06:57;;;;;;;12.27;5.05;;;;;;;;;;5060182;28;20440;-71
2021/11/13 10:09:27;;;;;;;11.67;5.07;;;;;;;;;;5054128;28;21265;-71
2021/11/13 10:11:57;;;;;;;12.98;5.65;;;;;;;;;;5065475;28;20393;-71
2021/11/13 10:14:40;;;;;;;13.02;5.88;;;;;;;;;;5067384;28;20407;-71
2021/11/13 10:17:19;;;;;;;13.85;6.35;;;;;;;;;;5046074;28;20883;-71
2021/11/13 10:19:48;;;;;;;12.48;5.88;;;;;;;;;;5064994;28;20401;-71
2021/11/13 10:22:23;;;;;;;16.35;6.25;;;;;;;;;;5063813;28;20790;-71
2021/11/13 10:24:55;;;;;;;14.02;6.15;;;;;;;;;;5052002;28;20397;-71
2021/11/13 10:27:30;;;;;;;15.98;5.95;;;;;;;;;;5047720;28;20413;-71
2021/11/13 10:30:23;;;;;;;13.40;6.17;;;;;;;;;;5068884;28;20404;-69
2021/11/13 10:32:58;;;;;;;13.75;6.45;;;;;;;;;;5061996;28;20803;-69
2021/11/13 10:35:46;;;;;;;13.40;6.30;;;;;;;;;;5066502;28;20883;-69
2021/11/13 10:38:16;;;;;;;14.10;6.13;;;;;;;;;;5060178;28;20484;-69
2021/11/13 10:40:56;;;;;;;13.18;6.40;;;;;;;;;;5056563;28;20415;-71
2021/11/13 10:43:39;;;;;;;11.80;5.60;;;;;;;;;;5072179;28;20393;-71
2021/11/13 10:46:19;;;;;;;13.35;5.78;;;;;;;;;;5067761;28;20400;-71
2021/11/13 10:48:57;;;;;;;11.65;6.03;;;;;;;;;;5037158;28;20407;-71
2021/11/13 10:51:30;;;;;;;13.10;5.78;;;;;;;;;;5043044;28;20446;-71
2021/11/13 10:54:15;;;;;;;12.52;5.70;;;;;;;;;;5036399;28;21870;-71
2021/11/13 10:56:54;;;;;;;10.00;5.25;;;;;;;;;;5022193;28;20898;-69
2021/11/13 10:59:44;;;;;;;11.98;5.72;;;;;;;;;;5008846;28;20382;-69
2021/11/13 11:02:15;;;;;;;9.07;4.80;;;;;;;;;;5043161;28;20395;-72
2021/11/13 11:04:51;;;;;;;9.77;5.38;;;;;;;;;;5032876;28;20404;-69
2021/11/13 11:07:26;;;;;;;13.93;5.75;;;;;;;;;;5037024;28;20622;-70
2021/11/13 11:10:09;;;;;;;12.07;5.75;;;;;;;;;;5039309;28;20417;-69
2021/11/13 11:12:46;;;;;;;12.23;5.03;;;;;;;;;;5040260;28;20416;-68
2021/11/13 11:15:16;;;;;;;11.38;4.88;;;;;;;;;;5041990;28;20770;-69
2021/11/13 11:17:46;;;;;;;8.90;4.50;;;;;;;;;;5029845;28;20419;-69
2021/11/13 11:20:20;;;;;;;10.57;4.70;;;;;;;;;;5037424;28;20405;-68
2021/11/13 11:22:53;;;;;;;11.70;4.95;;;;;;;;;;5021522;28;20420;-66
2021/11/13 11:25:26;;;;;;;20.87;6.93;;;;;;;;;;5028548;28;20906;-69
2021/11/13 11:27:58;;;;;;;107.80;24.23;;;;;;;;;;5044991;28;20708;-70
2021/11/13 11:30:26;;;;;;;112.35;25.75;;;;;;;;;;5009616;28;20414;-69
2021/11/13 11:32:59;;;;;;;101.15;22.10;;;;;;;;;;5042347;28;20415;-69
2021/11/13 11:35:30;;;;;;;88.75;20.90;;;;;;;;;;5035922;28;20406;-69
2021/11/13 11:38:06;;;;;;;89.40;22.10;;;;;;;;;;5032554;28;20396;-70
2021/11/13 11:40:40;;;;;;;78.45;19.98;;;;;;;;;;5031436;28;20781;-70
2021/11/13 11:43:10;;;;;;;73.50;19.25;;;;;;;;;;5041360;28;20397;-70
2021/11/13 11:45:44;;;;;;;65.97;18.92;;;;;;;;;;5052350;28;20492;-69
2021/11/13 11:48:15;;;;;;;61.47;17.90;;;;;;;;;;5041231;28;20419;-69
2021/11/13 11:50:49;;;;;;;58.25;16.98;;;;;;;;;;5028687;28;20401;-69
2021/11/13 11:53:21;;;;;;;47.47;15.45;;;;;;;;;;5046926;28;20399;-69
2021/11/13 11:55:55;;;;;;;49.67;15.40;;;;;;;;;;5064826;28;20474;-68
2021/11/13 11:58:23;;;;;;;43.20;13.57;;;;;;;;;;5054877;28;20401;-68
2021/11/13 12:00:59;;;;;;;39.65;13.68;;;;;;;;;;5062105;28;20817;-67
2021/11/13 12:03:40;;;;;;;34.73;12.03;;;;;;;;;;5056502;28;20401;-68
2021/11/13 12:06:13;;;;;;;31.60;11.65;;;;;;;;;;5054585;28;20441;-68
2021/11/13 12:08:45;;;;;;;29.20;10.98;;;;;;;;;;5054743;28;20468;-68
2021/11/13 12:11:22;;;;;;;29.05;10.68;;;;;;;;;;5068281;28;20408;-71
2021/11/13 12:14:01;;;;;;;27.58;10.50;;;;;;;;;;5050259;28;20498;-70
2021/11/13 12:16:29;;;;;;;25.00;10.05;;;;;;;;;;5061975;28;20496;-69
2021/11/13 12:18:57;;;;;;;22.35;9.35;;;;;;;;;;5061468;28;20410;-69
2021/11/13 12:21:32;;;;;;;24.00;9.63;;;;;;;;;;5062921;28;20393;-70
2021/11/13 12:24:07;;;;;;;23.48;9.20;;;;;;;;;;5038755;28;20396;-70
2021/11/13 12:26:40;;;;;;;21.13;9.00;;;;;;;;;;5053122;28;20453;-70
2021/11/13 12:29:13;;;;;;;18.10;8.13;;;;;;;;;;5056152;28;20402;-70
2021/11/13 12:31:42;;;;;;;17.38;7.75;;;;;;;;;;5042446;28;20399;-68
2021/11/13 12:34:16;;;;;;;16.67;7.93;;;;;;;;;;5061102;28;20417;-68
2021/11/13 12:37:04;;;;;;;20.10;8.15;;;;;;;;;;5054352;28;20397;-72
2021/11/13 12:39:35;;;;;;;17.42;7.43;;;;;;;;;;5058597;28;20413;-68
2021/11/13 12:42:10;;;;;;;15.63;7.40;;;;;;;;;;5058895;28;20412;-70
2021/11/13 12:44:48;;;;;;;17.05;7.07;;;;;;;;;;5044510;28;20895;-71
2021/11/13 12:47:18;;;;;;;12.02;6.10;;;;;;;;;;5048428;28;20867;-71
2021/11/13 12:49:49;;;;;;;13.98;6.13;;;;;;;;;;5062689;28;20401;-71
2021/11/13 12:52:21;;;;;;;10.70;5.38;;;;;;;;;;5040638;28;20457;-70
2021/11/13 12:54:53;;;;;;;9.53;5.10;;;;;;;;;;5034711;28;20716;-72
2021/11/13 12:57:35;;;;;;;10.75;5.40;;;;;;;;;;5043535;28;20746;-70
2021/11/13 13:00:25;;;;;;;10.45;5.07;;;;;;;;;;5045101;28;20392;-71
2021/11/13 13:03:10;;;;;;;7.53;4.43;;;;;;;;;;5048999;28;20400;-70
2021/11/13 13:05:40;;;;;;;9.48;4.90;;;;;;;;;;5035919;28;20841;-71
2021/11/13 13:08:13;;;;;;;10.90;4.82;;;;;;;;;;5045592;28;20397;-71
2021/11/13 13:10:44;;;;;;;10.77;4.63;;;;;;;;;;5011423;28;20391;-71
2021/11/13 13:13:18;;;;;;;7.95;4.43;;;;;;;;;;5049241;28;20423;-73
2021/11/13 13:15:59;;;;;;;7.47;4.22;;;;;;;;;;5055108;28;20396;-72
2021/11/13 13:18:29;;;;;;;8.07;4.00;;;;;;;;;;5021540;28;20796;-71
2021/11/13 13:21:00;;;;;;;6.72;4.25;;;;;;;;;;5005844;28;20388;-70
2021/11/13 13:23:31;;;;;;;9.20;4.43;;;;;;;;;;5013296;28;20393;-71
2021/11/13 13:26:01;;;;;;;7.32;3.67;;;;;;;;;;5050004;28;20393;-72
2021/11/13 13:28:29;;;;;;;6.65;3.83;;;;;;;;;;5037997;28;20404;-71
2021/11/13 13:31:01;;;;;;;7.57;3.92;;;;;;;;;;5028404;28;20413;-69
2021/11/13 13:33:54;;;;;;;7.60;3.90;;;;;;;;;;5044787;28;20406;-68
2021/11/13 13:36:37;;;;;;;5.93;3.75;;;;;;;;;;5050213;28;20634;-68
2021/11/13 13:39:14;;;;;;;7.65;3.60;;;;;;;;;;5043673;28;20961;-68
2021/11/13 13:41:42;;;;;;;7.53;4.00;;;;;;;;;;5036575;28;20404;-69
2021/11/13 13:44:12;;;;;;;7.97;4.30;;;;;;;;;;5025747;28;20398;-66
2021/11/13 13:46:43;;;;;;;6.43;4.20;;;;;;;;;;5033505;28;20408;-68
2021/11/13 13:49:25;;;;;;;8.82;4.40;;;;;;;;;;5041951;28;20577;-69
2021/11/13 13:51:57;;;;;;;7.00;4.40;;;;;;;;;;5021643;28;20407;-69
2021/11/13 13:54:35;;;;;;;8.73;4.70;;;;;;;;;;5055731;28;20390;-68
2021/11/13 13:57:17;;;;;;;6.85;4.43;;;;;;;;;;5049716;28;20402;-68
2021/11/13 13:59:51;;;;;;;9.38;4.40;;;;;;;;;;5064602;28;20754;-67
2021/11/13 14:02:23;;;;;;;7.90;4.63;;;;;;;;;;5054771;28;20459;-67
2021/11/13 14:04:57;;;;;;;8.27;4.30;;;;;;;;;;5061168;28;20406;-67
2021/11/13 14:07:33;;;;;;;7.00;4.00;;;;;;;;;;5060898;28;20884;-67
2021/11/13 14:10:14;;;;;;;7.57;4.18;;;;;;;;;;5058161;28;20856;-68
2021/11/13 14:12:49;;;;;;;6.32;3.85;;;;;;;;;;5052605;28;20454;-68
2021/11/13 14:15:29;;;;;;;6.47;3.95;;;;;;;;;;5054941;28;20739;-68
2021/11/13 14:18:13;;;;;;;5.82;4.05;;;;;;;;;;5053542;28;20420;-69
2021/11/13 14:20:50;;;;;;;7.60;4.15;;;;;;;;;;5076230;28;20384;-69
2021/11/13 14:23:34;;;;;;;7.38;4.35;;;;;;;;;;5076333;28;20479;-69
2021/11/13 14:26:05;;;;;;;7.75;5.30;;;;;;;;;;5053320;28;20922;-68
2021/11/13 14:28:42;;;;;;;7.72;5.03;;;;;;;;;;5060051;28;20884;-69
2021/11/13 14:31:25;;;;;;;6.20;4.65;;;;;;;;;;5069109;28;20424;-66
2021/11/13 14:33:57;;;;;;;5.50;4.60;;;;;;;;;;5079429;28;20396;-66
2021/11/13 14:36:35;;;;;;;7.40;4.75;;;;;;;;;;5075155;28;20403;-66
2021/11/13 14:39:09;;;;;;;5.90;4.65;;;;;;;;;;5080735;28;20455;-67
2021/11/13 14:42:00;;;;;;;7.07;4.47;;;;;;;;;;5079131;28;20832;-66
2021/11/13 14:44:40;;;;;;;6.25;4.68;;;;;;;;;;5075690;28;20402;-67
2021/11/13 14:47:11;;;;;;;6.10;4.18;;;;;;;;;;5079820;28;20415;-66
2021/11/13 14:49:42;;;;;;;6.68;4.55;;;;;;;;;;5064011;28;20428;-67
2021/11/13 14:52:15;;;;;;;5.95;4.50;;;;;;;;;;5059616;28;20440;-68
2021/11/13 14:55:12;;;;;;;5.97;4.43;;;;;;;;;;5059043;28;20408;-68
2021/11/13 14:57:48;;;;;;;5.47;4.10;;;;;;;;;;5075215;28;20943;-66
2021/11/13 15:00:26;;;;;;;6.57;4.68;;;;;;;;;;5081542;28;20404;-66
2021/11/13 15:03:14;;;;;;;6.20;4.15;;;;;;;;;;5081071;28;20458;-67
2021/11/13 15:05:48;;;;;;;6.80;4.40;;;;;;;;;;5093211;28;20491;-69
2021/11/13 15:08:38;;;;;;;5.80;4.03;;;;;;;;;;5078292;28;20391;-70
2021/11/13 15:11:05;;;;;;;5.65;4.28;;;;;;;;;;5084586;28;20404;-69